sensor_id;sensor_type;location;lat;lon;timestamp;P1;durP1;ratioP1;P2;durP2;ratioP2
18188;SDS011;9219;50.396;8.546;2023-12-14T00:27:00;17.57;;;5.73;;
18188;SDS011;9219;50.396;8.546;2023-12-14T00:29:27;13.97;;;5.70;;
18188;SDS011;9219;50.396;8.546;2023-12-14T00:31:55;13.17;;;5.60;;
18188;SDS011;9219;50.396;8.546;2023-12-14T00:34:25;21.97;;;7.07;;
18188;SDS011;9219;50.396;8.546;2023-12-14T00:36:53;24.37;;;7.00;;
18188;SDS011;9219;50.396;8.546;2023-12-14T00:39:22;19.53;;;7.23;;
18188;SDS011;9219;50.396;8.546;2023-12-14T00:45:22;33.47;;;7.73;;
18188;SDS011;9219;50.396;8.546;2023-12-14T00:53:34;25.13;;;8.57;;
18188;SDS011;9219;50.396;8.546;2023-12-14T00:56:01;19.57;;;8.40;;
18188;SDS011;9219;50.396;8.546;2023-12-14T00:58:28;34.93;;;7.47;;
18188;SDS011;9219;50.396;8.546;2023-12-14T01:00:57;21.57;;;6.97;;
18188;SDS011;9219;50.396;8.546;2023-12-14T01:04:01;26.83;;;9.03;;
18188;SDS011;9219;50.396;8.546;2023-12-14T01:06:48;69.90;;;13.57;;
18188;SDS011;9219;50.396;8.546;2023-12-14T01:09:16;23.27;;;6.93;;
18188;SDS011;9219;50.396;8.546;2023-12-14T01:11:43;25.77;;;8.13;;
18188;SDS011;9219;50.396;8.546;2023-12-14T01:15:32;126.53;;;17.90;;
18188;SDS011;9219;50.396;8.546;2023-12-14T01:18:00;144.43;;;21.17;;
18188;SDS011;9219;50.396;8.546;2023-12-14T01:20:27;218.60;;;26.87;;
18188;SDS011;9219;50.396;8.546;2023-12-14T01:22:54;360.37;;;36.87;;
18188;SDS011;9219;50.396;8.546;2023-12-14T01:25:23;380.27;;;39.07;;
18188;SDS011;9219;50.396;8.546;2023-12-14T01:27:50;362.10;;;35.70;;
18188;SDS011;9219;50.396;8.546;2023-12-14T01:30:17;270.17;;;31.33;;
18188;SDS011;9219;50.396;8.546;2023-12-14T01:40:48;239.93;;;24.60;;
18188;SDS011;9219;50.396;8.546;2023-12-14T01:49:15;171.80;;;22.23;;
18188;SDS011;9219;50.396;8.546;2023-12-14T01:51:52;18.63;;;7.50;;
18188;SDS011;9219;50.396;8.546;2023-12-14T01:57:20;25.30;;;6.23;;
18188;SDS011;9219;50.396;8.546;2023-12-14T02:08:54;12.20;;;4.67;;
18188;SDS011;9219;50.396;8.546;2023-12-14T02:14:30;12.40;;;4.17;;
18188;SDS011;9219;50.396;8.546;2023-12-14T02:34:38;6.70;;;3.10;;
18188;SDS011;9219;50.396;8.546;2023-12-14T02:37:06;11.30;;;3.17;;
18188;SDS011;9219;50.396;8.546;2023-12-14T02:39:34;9.60;;;3.40;;
18188;SDS011;9219;50.396;8.546;2023-12-14T02:42:01;8.17;;;3.10;;
18188;SDS011;9219;50.396;8.546;2023-12-14T02:44:28;7.00;;;2.83;;
18188;SDS011;9219;50.396;8.546;2023-12-14T02:46:56;6.30;;;2.40;;
18188;SDS011;9219;50.396;8.546;2023-12-14T02:49:25;10.80;;;2.73;;
18188;SDS011;9219;50.396;8.546;2023-12-14T02:51:55;5.33;;;2.33;;
18188;SDS011;9219;50.396;8.546;2023-12-14T02:54:53;5.73;;;3.40;;
18188;SDS011;9219;50.396;8.546;2023-12-14T03:00:01;103.27;;;12.17;;
18188;SDS011;9219;50.396;8.546;2023-12-14T03:02:28;24.87;;;6.57;;
18188;SDS011;9219;50.396;8.546;2023-12-14T03:04:55;13.53;;;6.07;;
18188;SDS011;9219;50.396;8.546;2023-12-14T03:07:31;281.07;;;24.67;;
18188;SDS011;9219;50.396;8.546;2023-12-14T03:10:04;365.60;;;29.23;;
18188;SDS011;9219;50.396;8.546;2023-12-14T03:13:04;279.93;;;25.43;;
18188;SDS011;9219;50.396;8.546;2023-12-14T03:15:32;391.97;;;35.57;;
18188;SDS011;9219;50.396;8.546;2023-12-14T03:17:59;480.30;;;36.90;;
18188;SDS011;9219;50.396;8.546;2023-12-14T03:20:27;416.83;;;32.87;;
18188;SDS011;9219;50.396;8.546;2023-12-14T03:31:31;450.07;;;34.87;;
18188;SDS011;9219;50.396;8.546;2023-12-14T03:34:13;358.17;;;28.67;;
18188;SDS011;9219;50.396;8.546;2023-12-14T03:40:51;529.90;;;33.03;;
18188;SDS011;9219;50.396;8.546;2023-12-14T03:43:22;590.53;;;46.30;;
18188;SDS011;9219;50.396;8.546;2023-12-14T03:45:50;446.60;;;34.73;;
18188;SDS011;9219;50.396;8.546;2023-12-14T03:48:17;396.60;;;32.73;;
18188;SDS011;9219;50.396;8.546;2023-12-14T03:50:45;460.03;;;33.83;;
18188;SDS011;9219;50.396;8.546;2023-12-14T03:53:12;462.03;;;36.60;;
18188;SDS011;9219;50.396;8.546;2023-12-14T03:59:49;673.60;;;53.37;;
18188;SDS011;9219;50.396;8.546;2023-12-14T04:02:56;512.87;;;47.60;;
18188;SDS011;9219;50.396;8.546;2023-12-14T04:05:26;379.77;;;34.00;;
18188;SDS011;9219;50.396;8.546;2023-12-14T04:07:53;286.43;;;34.23;;
18188;SDS011;9219;50.396;8.546;2023-12-14T04:10:21;295.93;;;36.50;;
18188;SDS011;9219;50.396;8.546;2023-12-14T04:12:48;361.23;;;42.97;;
18188;SDS011;9219;50.396;8.546;2023-12-14T04:15:16;707.43;;;75.63;;
18188;SDS011;9219;50.396;8.546;2023-12-14T04:17:43;388.53;;;41.63;;
18188;SDS011;9219;50.396;8.546;2023-12-14T04:25:04;416.10;;;38.83;;
18188;SDS011;9219;50.396;8.546;2023-12-14T04:27:32;494.03;;;43.53;;
18188;SDS011;9219;50.396;8.546;2023-12-14T04:30:00;625.43;;;59.87;;
18188;SDS011;9219;50.396;8.546;2023-12-14T04:32:27;643.73;;;51.07;;
18188;SDS011;9219;50.396;8.546;2023-12-14T04:34:56;621.67;;;49.63;;
18188;SDS011;9219;50.396;8.546;2023-12-14T04:37:23;516.93;;;41.47;;
18188;SDS011;9219;50.396;8.546;2023-12-14T04:39:51;494.37;;;37.93;;
18188;SDS011;9219;50.396;8.546;2023-12-14T04:46:47;429.27;;;35.37;;
18188;SDS011;9219;50.396;8.546;2023-12-14T04:49:15;454.77;;;31.83;;
18188;SDS011;9219;50.396;8.546;2023-12-14T04:51:44;364.70;;;27.33;;
18188;SDS011;9219;50.396;8.546;2023-12-14T04:55:09;656.07;;;50.17;;
18188;SDS011;9219;50.396;8.546;2023-12-14T04:57:39;521.23;;;37.73;;
18188;SDS011;9219;50.396;8.546;2023-12-14T05:03:16;421.40;;;30.53;;
18188;SDS011;9219;50.396;8.546;2023-12-14T05:05:55;467.73;;;37.23;;
18188;SDS011;9219;50.396;8.546;2023-12-14T05:08:26;358.87;;;29.53;;
18188;SDS011;9219;50.396;8.546;2023-12-14T05:20:22;515.27;;;41.97;;
18188;SDS011;9219;50.396;8.546;2023-12-14T05:22:49;451.10;;;37.00;;
18188;SDS011;9219;50.396;8.546;2023-12-14T05:25:20;556.73;;;43.77;;
18188;SDS011;9219;50.396;8.546;2023-12-14T05:28:24;380.73;;;35.57;;
18188;SDS011;9219;50.396;8.546;2023-12-14T05:30:37;490.07;;;41.60;;
18188;SDS011;9219;50.396;8.546;2023-12-14T05:33:41;440.63;;;35.27;;
18188;SDS011;9219;50.396;8.546;2023-12-14T05:36:59;481.47;;;32.50;;
18188;SDS011;9219;50.396;8.546;2023-12-14T05:39:26;475.83;;;33.53;;
18188;SDS011;9219;50.396;8.546;2023-12-14T05:46:36;563.07;;;39.30;;
18188;SDS011;9219;50.396;8.546;2023-12-14T05:49:04;546.67;;;44.23;;
18188;SDS011;9219;50.396;8.546;2023-12-14T05:51:32;552.23;;;39.27;;
18188;SDS011;9219;50.396;8.546;2023-12-14T05:53:59;453.83;;;37.87;;
18188;SDS011;9219;50.396;8.546;2023-12-14T05:56:27;587.00;;;45.57;;
18188;SDS011;9219;50.396;8.546;2023-12-14T05:58:55;474.63;;;37.03;;
18188;SDS011;9219;50.396;8.546;2023-12-14T06:01:23;580.40;;;48.93;;
18188;SDS011;9219;50.396;8.546;2023-12-14T06:08:56;439.97;;;36.67;;
18188;SDS011;9219;50.396;8.546;2023-12-14T06:11:23;422.70;;;36.97;;
18188;SDS011;9219;50.396;8.546;2023-12-14T06:13:51;489.93;;;38.27;;
18188;SDS011;9219;50.396;8.546;2023-12-14T06:16:18;513.37;;;34.67;;
18188;SDS011;9219;50.396;8.546;2023-12-14T06:18:45;429.93;;;28.77;;
18188;SDS011;9219;50.396;8.546;2023-12-14T06:21:13;456.90;;;33.70;;
18188;SDS011;9219;50.396;8.546;2023-12-14T06:23:40;424.13;;;34.40;;
18188;SDS011;9219;50.396;8.546;2023-12-14T06:31:07;373.70;;;29.87;;
18188;SDS011;9219;50.396;8.546;2023-12-14T06:33:40;482.67;;;35.17;;
18188;SDS011;9219;50.396;8.546;2023-12-14T06:36:08;604.30;;;41.37;;
18188;SDS011;9219;50.396;8.546;2023-12-14T06:38:37;427.83;;;36.97;;
18188;SDS011;9219;50.396;8.546;2023-12-14T06:41:05;501.27;;;38.43;;
18188;SDS011;9219;50.396;8.546;2023-12-14T06:43:33;538.63;;;39.50;;
18188;SDS011;9219;50.396;8.546;2023-12-14T06:46:00;486.27;;;37.20;;
18188;SDS011;9219;50.396;8.546;2023-12-14T06:53:06;553.83;;;47.50;;
18188;SDS011;9219;50.396;8.546;2023-12-14T06:55:33;481.13;;;34.57;;
18188;SDS011;9219;50.396;8.546;2023-12-14T06:58:00;537.00;;;49.53;;
18188;SDS011;9219;50.396;8.546;2023-12-14T07:00:27;505.67;;;36.70;;
18188;SDS011;9219;50.396;8.546;2023-12-14T07:02:55;563.07;;;45.97;;
18188;SDS011;9219;50.396;8.546;2023-12-14T07:05:22;594.07;;;52.37;;
18188;SDS011;9219;50.396;8.546;2023-12-14T07:07:50;479.60;;;40.63;;
18188;SDS011;9219;50.396;8.546;2023-12-14T07:15:23;582.40;;;51.00;;
18188;SDS011;9219;50.396;8.546;2023-12-14T07:17:50;666.23;;;51.87;;
18188;SDS011;9219;50.396;8.546;2023-12-14T07:20:18;628.13;;;53.60;;
18188;SDS011;9219;50.396;8.546;2023-12-14T07:22:45;684.33;;;63.67;;
18188;SDS011;9219;50.396;8.546;2023-12-14T07:25:12;677.90;;;63.80;;
18188;SDS011;9219;50.396;8.546;2023-12-14T07:27:40;765.37;;;72.80;;
18188;SDS011;9219;50.396;8.546;2023-12-14T07:30:07;634.03;;;63.30;;
18188;SDS011;9219;50.396;8.546;2023-12-14T07:37:37;781.93;;;82.97;;
18188;SDS011;9219;50.396;8.546;2023-12-14T07:40:05;900.47;;;100.00;;
18188;SDS011;9219;50.396;8.546;2023-12-14T07:42:39;918.43;;;100.50;;
18188;SDS011;9219;50.396;8.546;2023-12-14T07:45:06;916.33;;;112.13;;
18188;SDS011;9219;50.396;8.546;2023-12-14T07:47:38;928.03;;;113.73;;
18188;SDS011;9219;50.396;8.546;2023-12-14T07:50:05;769.23;;;86.40;;
18188;SDS011;9219;50.396;8.546;2023-12-14T07:52:33;759.87;;;81.03;;
18188;SDS011;9219;50.396;8.546;2023-12-14T08:00:01;810.80;;;92.53;;
18188;SDS011;9219;50.396;8.546;2023-12-14T08:02:31;866.40;;;86.10;;
18188;SDS011;9219;50.396;8.546;2023-12-14T08:04:58;694.87;;;80.93;;
18188;SDS011;9219;50.396;8.546;2023-12-14T08:07:26;792.27;;;85.53;;
18188;SDS011;9219;50.396;8.546;2023-12-14T08:09:55;910.77;;;98.77;;
18188;SDS011;9219;50.396;8.546;2023-12-14T08:12:23;696.47;;;83.20;;
18188;SDS011;9219;50.396;8.546;2023-12-14T08:14:50;809.13;;;97.23;;
18188;SDS011;9219;50.396;8.546;2023-12-14T08:22:14;626.40;;;79.13;;
18188;SDS011;9219;50.396;8.546;2023-12-14T08:24:41;490.10;;;60.50;;
18188;SDS011;9219;50.396;8.546;2023-12-14T08:27:09;416.60;;;51.93;;
18188;SDS011;9219;50.396;8.546;2023-12-14T08:29:36;76.47;;;18.20;;
18188;SDS011;9219;50.396;8.546;2023-12-14T08:32:05;548.13;;;77.90;;
18188;SDS011;9219;50.396;8.546;2023-12-14T08:34:32;406.53;;;47.80;;
18188;SDS011;9219;50.396;8.546;2023-12-14T08:37:00;73.53;;;18.30;;
18188;SDS011;9219;50.396;8.546;2023-12-14T08:44:33;636.43;;;87.07;;
18188;SDS011;9219;50.396;8.546;2023-12-14T08:47:00;739.67;;;100.53;;
18188;SDS011;9219;50.396;8.546;2023-12-14T08:49:30;658.40;;;81.87;;
18188;SDS011;9219;50.396;8.546;2023-12-14T08:51:59;763.53;;;91.80;;
18188;SDS011;9219;50.396;8.546;2023-12-14T08:54:27;926.87;;;104.80;;
18188;SDS011;9219;50.396;8.546;2023-12-14T08:56:54;865.10;;;94.00;;
18188;SDS011;9219;50.396;8.546;2023-12-14T08:59:22;486.87;;;59.23;;
18188;SDS011;9219;50.396;8.546;2023-12-14T09:06:54;763.00;;;95.97;;
18188;SDS011;9219;50.396;8.546;2023-12-14T09:09:22;989.60;;;116.33;;
18188;SDS011;9219;50.396;8.546;2023-12-14T09:11:50;835.53;;;104.73;;
18188;SDS011;9219;50.396;8.546;2023-12-14T09:14:20;859.13;;;97.67;;
18188;SDS011;9219;50.396;8.546;2023-12-14T09:16:48;769.90;;;102.13;;
18188;SDS011;9219;50.396;8.546;2023-12-14T09:19:15;853.37;;;103.17;;
18188;SDS011;9219;50.396;8.546;2023-12-14T09:21:42;841.07;;;113.53;;
18188;SDS011;9219;50.396;8.546;2023-12-14T09:29:17;483.30;;;55.27;;
18188;SDS011;9219;50.396;8.546;2023-12-14T09:31:45;568.37;;;85.60;;
18188;SDS011;9219;50.396;8.546;2023-12-14T09:34:13;63.07;;;17.27;;
18188;SDS011;9219;50.396;8.546;2023-12-14T09:36:40;105.47;;;24.83;;
18188;SDS011;9219;50.396;8.546;2023-12-14T09:39:07;258.77;;;36.60;;
18188;SDS011;9219;50.396;8.546;2023-12-14T09:41:36;690.63;;;99.53;;
18188;SDS011;9219;50.396;8.546;2023-12-14T09:44:05;627.17;;;87.20;;
18188;SDS011;9219;50.396;8.546;2023-12-14T09:51:32;312.43;;;44.47;;
18188;SDS011;9219;50.396;8.546;2023-12-14T09:54:00;657.83;;;85.67;;
18188;SDS011;9219;50.396;8.546;2023-12-14T09:56:28;602.60;;;82.93;;
18188;SDS011;9219;50.396;8.546;2023-12-14T09:58:56;696.80;;;91.53;;
18188;SDS011;9219;50.396;8.546;2023-12-14T10:01:24;399.40;;;53.83;;
18188;SDS011;9219;50.396;8.546;2023-12-14T10:04:06;373.80;;;49.33;;
18188;SDS011;9219;50.396;8.546;2023-12-14T10:06:35;412.10;;;56.53;;
18188;SDS011;9219;50.396;8.546;2023-12-14T10:13:44;265.23;;;36.10;;
18188;SDS011;9219;50.396;8.546;2023-12-14T10:16:11;305.90;;;42.93;;
18188;SDS011;9219;50.396;8.546;2023-12-14T10:18:39;264.93;;;39.60;;
18188;SDS011;9219;50.396;8.546;2023-12-14T10:21:07;636.67;;;82.57;;
18188;SDS011;9219;50.396;8.546;2023-12-14T10:23:34;68.00;;;19.77;;
18188;SDS011;9219;50.396;8.546;2023-12-14T10:26:02;493.20;;;70.50;;
18188;SDS011;9219;50.396;8.546;2023-12-14T10:28:31;382.20;;;51.27;;
18188;SDS011;9219;50.396;8.546;2023-12-14T10:33:41;589.23;;;81.17;;
18188;SDS011;9219;50.396;8.546;2023-12-14T10:36:09;489.83;;;64.23;;
18188;SDS011;9219;50.396;8.546;2023-12-14T10:38:36;187.23;;;31.17;;
18188;SDS011;9219;50.396;8.546;2023-12-14T10:41:04;122.63;;;24.67;;
18188;SDS011;9219;50.396;8.546;2023-12-14T10:43:34;383.80;;;52.30;;
18188;SDS011;9219;50.396;8.546;2023-12-14T10:46:15;587.43;;;76.97;;
18188;SDS011;9219;50.396;8.546;2023-12-14T10:48:44;153.97;;;27.13;;
18188;SDS011;9219;50.396;8.546;2023-12-14T10:56:17;25.63;;;10.77;;
18188;SDS011;9219;50.396;8.546;2023-12-14T10:58:46;45.83;;;13.97;;
18188;SDS011;9219;50.396;8.546;2023-12-14T11:01:14;36.10;;;12.77;;
18188;SDS011;9219;50.396;8.546;2023-12-14T11:03:43;27.40;;;11.30;;
18188;SDS011;9219;50.396;8.546;2023-12-14T11:06:20;28.43;;;10.90;;
18188;SDS011;9219;50.396;8.546;2023-12-14T11:08:56;17.67;;;9.67;;
18188;SDS011;9219;50.396;8.546;2023-12-14T11:11:28;22.43;;;10.50;;
18188;SDS011;9219;50.396;8.546;2023-12-14T11:22:10;19.80;;;7.90;;
18188;SDS011;9219;50.396;8.546;2023-12-14T11:24:59;19.13;;;9.03;;
18188;SDS011;9219;50.396;8.546;2023-12-14T11:27:29;15.57;;;8.37;;
18188;SDS011;9219;50.396;8.546;2023-12-14T11:29:57;14.40;;;6.57;;
18188;SDS011;9219;50.396;8.546;2023-12-14T11:32:25;13.67;;;7.13;;
18188;SDS011;9219;50.396;8.546;2023-12-14T11:38:04;10.63;;;5.73;;
18188;SDS011;9219;50.396;8.546;2023-12-14T11:40:38;12.60;;;5.23;;
18188;SDS011;9219;50.396;8.546;2023-12-14T11:43:06;8.93;;;5.50;;
18188;SDS011;9219;50.396;8.546;2023-12-14T11:45:34;10.17;;;4.77;;
18188;SDS011;9219;50.396;8.546;2023-12-14T11:48:02;10.13;;;5.53;;
18188;SDS011;9219;50.396;8.546;2023-12-14T11:50:31;15.83;;;6.47;;
18188;SDS011;9219;50.396;8.546;2023-12-14T11:53:00;10.47;;;5.83;;
18188;SDS011;9219;50.396;8.546;2023-12-14T12:00:32;11.10;;;5.27;;
18188;SDS011;9219;50.396;8.546;2023-12-14T12:03:09;11.20;;;4.77;;
18188;SDS011;9219;50.396;8.546;2023-12-14T12:05:38;11.83;;;6.30;;
18188;SDS011;9219;50.396;8.546;2023-12-14T12:08:09;10.83;;;5.43;;
18188;SDS011;9219;50.396;8.546;2023-12-14T12:10:37;7.53;;;4.10;;
18188;SDS011;9219;50.396;8.546;2023-12-14T12:13:06;11.07;;;5.77;;
18188;SDS011;9219;50.396;8.546;2023-12-14T12:15:36;9.37;;;5.07;;
18188;SDS011;9219;50.396;8.546;2023-12-14T12:23:09;14.33;;;5.57;;
18188;SDS011;9219;50.396;8.546;2023-12-14T12:25:36;12.20;;;6.33;;
18188;SDS011;9219;50.396;8.546;2023-12-14T12:28:04;14.10;;;5.20;;
18188;SDS011;9219;50.396;8.546;2023-12-14T12:30:32;15.10;;;6.17;;
18188;SDS011;9219;50.396;8.546;2023-12-14T12:33:03;14.43;;;6.63;;
18188;SDS011;9219;50.396;8.546;2023-12-14T12:35:31;11.07;;;5.27;;
18188;SDS011;9219;50.396;8.546;2023-12-14T12:38:00;14.43;;;6.07;;
18188;SDS011;9219;50.396;8.546;2023-12-14T12:45:32;11.03;;;5.50;;
18188;SDS011;9219;50.396;8.546;2023-12-14T12:47:59;13.67;;;6.17;;
18188;SDS011;9219;50.396;8.546;2023-12-14T12:50:26;11.73;;;5.17;;
18188;SDS011;9219;50.396;8.546;2023-12-14T12:52:58;12.07;;;5.63;;
18188;SDS011;9219;50.396;8.546;2023-12-14T12:55:26;11.17;;;5.70;;
18188;SDS011;9219;50.396;8.546;2023-12-14T12:57:53;8.83;;;5.20;;
18188;SDS011;9219;50.396;8.546;2023-12-14T13:00:21;11.27;;;4.53;;
18188;SDS011;9219;50.396;8.546;2023-12-14T13:07:49;7.20;;;4.47;;
18188;SDS011;9219;50.396;8.546;2023-12-14T13:10:17;8.90;;;4.13;;
18188;SDS011;9219;50.396;8.546;2023-12-14T13:12:57;7.50;;;3.50;;
18188;SDS011;9219;50.396;8.546;2023-12-14T13:15:25;6.27;;;3.83;;
18188;SDS011;9219;50.396;8.546;2023-12-14T13:17:52;5.70;;;3.60;;
18188;SDS011;9219;50.396;8.546;2023-12-14T13:20:20;8.07;;;3.87;;
18188;SDS011;9219;50.396;8.546;2023-12-14T13:22:49;7.27;;;3.50;;
18188;SDS011;9219;50.396;8.546;2023-12-14T13:30:18;8.27;;;3.53;;
18188;SDS011;9219;50.396;8.546;2023-12-14T13:32:47;7.70;;;2.83;;
18188;SDS011;9219;50.396;8.546;2023-12-14T13:35:14;4.90;;;3.20;;
18188;SDS011;9219;50.396;8.546;2023-12-14T13:37:42;6.23;;;3.10;;
18188;SDS011;9219;50.396;8.546;2023-12-14T13:40:09;5.07;;;3.03;;
18188;SDS011;9219;50.396;8.546;2023-12-14T13:42:39;6.20;;;3.23;;
18188;SDS011;9219;50.396;8.546;2023-12-14T13:45:21;5.73;;;3.40;;
18188;SDS011;9219;50.396;8.546;2023-12-14T13:52:49;5.17;;;3.17;;
18188;SDS011;9219;50.396;8.546;2023-12-14T13:55:18;9.53;;;4.93;;
18188;SDS011;9219;50.396;8.546;2023-12-14T13:57:45;7.27;;;3.50;;
18188;SDS011;9219;50.396;8.546;2023-12-14T14:00:14;6.07;;;3.50;;
18188;SDS011;9219;50.396;8.546;2023-12-14T14:02:42;6.40;;;3.80;;
18188;SDS011;9219;50.396;8.546;2023-12-14T14:05:09;5.87;;;3.23;;
18188;SDS011;9219;50.396;8.546;2023-12-14T14:07:37;6.97;;;3.10;;
18188;SDS011;9219;50.396;8.546;2023-12-14T14:15:05;5.80;;;3.00;;
18188;SDS011;9219;50.396;8.546;2023-12-14T14:17:33;5.80;;;3.20;;
18188;SDS011;9219;50.396;8.546;2023-12-14T14:20:01;7.03;;;3.63;;
18188;SDS011;9219;50.396;8.546;2023-12-14T14:22:31;7.23;;;3.57;;
18188;SDS011;9219;50.396;8.546;2023-12-14T14:24:59;8.43;;;2.80;;
18188;SDS011;9219;50.396;8.546;2023-12-14T14:27:26;5.80;;;3.23;;
18188;SDS011;9219;50.396;8.546;2023-12-14T14:29:54;12.27;;;3.90;;
18188;SDS011;9219;50.396;8.546;2023-12-14T14:32:23;4.17;;;2.10;;
18188;SDS011;9219;50.396;8.546;2023-12-14T14:39:17;9.37;;;2.93;;
18188;SDS011;9219;50.396;8.546;2023-12-14T14:41:45;4.13;;;2.37;;
18188;SDS011;9219;50.396;8.546;2023-12-14T14:44:13;5.47;;;2.63;;
18188;SDS011;9219;50.396;8.546;2023-12-14T14:46:40;10.57;;;3.93;;
18188;SDS011;9219;50.396;8.546;2023-12-14T14:49:07;16.97;;;5.27;;
18188;SDS011;9219;50.396;8.546;2023-12-14T14:51:35;72.33;;;11.40;;
18188;SDS011;9219;50.396;8.546;2023-12-14T14:54:02;12.47;;;5.07;;
18188;SDS011;9219;50.396;8.546;2023-12-14T15:01:28;13.07;;;4.20;;
18188;SDS011;9219;50.396;8.546;2023-12-14T15:03:56;8.43;;;3.47;;
18188;SDS011;9219;50.396;8.546;2023-12-14T15:06:23;6.07;;;3.23;;
18188;SDS011;9219;50.396;8.546;2023-12-14T15:08:51;18.53;;;5.03;;
18188;SDS011;9219;50.396;8.546;2023-12-14T15:11:18;7.73;;;3.83;;
18188;SDS011;9219;50.396;8.546;2023-12-14T15:13:46;11.10;;;6.03;;
18188;SDS011;9219;50.396;8.546;2023-12-14T15:16:13;7.47;;;4.37;;
18188;SDS011;9219;50.396;8.546;2023-12-14T15:23:45;11.27;;;4.77;;
18188;SDS011;9219;50.396;8.546;2023-12-14T15:26:15;20.07;;;5.00;;
18188;SDS011;9219;50.396;8.546;2023-12-14T15:28:42;11.37;;;3.80;;
18188;SDS011;9219;50.396;8.546;2023-12-14T15:31:10;9.20;;;2.70;;
18188;SDS011;9219;50.396;8.546;2023-12-14T15:33:38;7.37;;;3.50;;
18188;SDS011;9219;50.396;8.546;2023-12-14T15:36:05;4.97;;;3.27;;
18188;SDS011;9219;50.396;8.546;2023-12-14T15:38:33;6.43;;;3.33;;
18188;SDS011;9219;50.396;8.546;2023-12-14T15:46:06;6.17;;;3.33;;
18188;SDS011;9219;50.396;8.546;2023-12-14T15:48:34;5.17;;;3.10;;
18188;SDS011;9219;50.396;8.546;2023-12-14T15:51:02;5.27;;;3.13;;
18188;SDS011;9219;50.396;8.546;2023-12-14T15:53:35;5.53;;;3.20;;
18188;SDS011;9219;50.396;8.546;2023-12-14T15:56:03;6.07;;;3.10;;
18188;SDS011;9219;50.396;8.546;2023-12-14T15:58:31;8.63;;;3.93;;
18188;SDS011;9219;50.396;8.546;2023-12-14T16:00:58;6.87;;;3.20;;
18188;SDS011;9219;50.396;8.546;2023-12-14T16:08:27;9.90;;;3.87;;
18188;SDS011;9219;50.396;8.546;2023-12-14T16:10:55;7.03;;;3.60;;
18188;SDS011;9219;50.396;8.546;2023-12-14T16:13:23;11.47;;;4.10;;
18188;SDS011;9219;50.396;8.546;2023-12-14T16:15:50;10.77;;;4.07;;
18188;SDS011;9219;50.396;8.546;2023-12-14T16:18:18;23.33;;;6.47;;
18188;SDS011;9219;50.396;8.546;2023-12-14T16:20:46;36.30;;;7.73;;
18188;SDS011;9219;50.396;8.546;2023-12-14T16:23:15;7.33;;;4.07;;
18188;SDS011;9219;50.396;8.546;2023-12-14T16:30:38;10.77;;;4.50;;
18188;SDS011;9219;50.396;8.546;2023-12-14T16:33:06;6.97;;;4.30;;
18188;SDS011;9219;50.396;8.546;2023-12-14T16:35:34;11.60;;;5.07;;
18188;SDS011;9219;50.396;8.546;2023-12-14T16:38:01;12.17;;;5.23;;
18188;SDS011;9219;50.396;8.546;2023-12-14T16:40:28;7.83;;;3.77;;
18188;SDS011;9219;50.396;8.546;2023-12-14T16:42:55;9.60;;;4.50;;
18188;SDS011;9219;50.396;8.546;2023-12-14T16:45:23;19.20;;;4.70;;
18188;SDS011;9219;50.396;8.546;2023-12-14T16:52:22;15.33;;;6.83;;
18188;SDS011;9219;50.396;8.546;2023-12-14T16:54:50;9.60;;;5.00;;
18188;SDS011;9219;50.396;8.546;2023-12-14T16:57:17;32.60;;;7.47;;
18188;SDS011;9219;50.396;8.546;2023-12-14T16:59:47;44.27;;;8.90;;
18188;SDS011;9219;50.396;8.546;2023-12-14T17:02:14;135.10;;;15.93;;
18188;SDS011;9219;50.396;8.546;2023-12-14T17:04:41;11.97;;;4.87;;
18188;SDS011;9219;50.396;8.546;2023-12-14T17:07:10;22.70;;;6.23;;
18188;SDS011;9219;50.396;8.546;2023-12-14T17:14:43;193.30;;;25.57;;
18188;SDS011;9219;50.396;8.546;2023-12-14T17:17:10;253.23;;;29.37;;
18188;SDS011;9219;50.396;8.546;2023-12-14T17:19:38;35.87;;;8.53;;
18188;SDS011;9219;50.396;8.546;2023-12-14T17:22:06;184.83;;;26.27;;
18188;SDS011;9219;50.396;8.546;2023-12-14T17:24:34;14.90;;;6.67;;
18188;SDS011;9219;50.396;8.546;2023-12-14T17:27:01;25.57;;;7.10;;
18188;SDS011;9219;50.396;8.546;2023-12-14T17:29:29;10.07;;;6.73;;
18188;SDS011;9219;50.396;8.546;2023-12-14T17:34:55;11.73;;;6.57;;
18188;SDS011;9219;50.396;8.546;2023-12-14T17:37:22;14.50;;;6.27;;
18188;SDS011;9219;50.396;8.546;2023-12-14T17:39:49;11.40;;;5.90;;
18188;SDS011;9219;50.396;8.546;2023-12-14T17:42:17;16.33;;;6.87;;
18188;SDS011;9219;50.396;8.546;2023-12-14T17:44:45;16.27;;;7.57;;
18188;SDS011;9219;50.396;8.546;2023-12-14T17:47:13;16.50;;;7.70;;
18188;SDS011;9219;50.396;8.546;2023-12-14T17:49:40;15.70;;;6.87;;
18188;SDS011;9219;50.396;8.546;2023-12-14T17:57:08;14.50;;;6.67;;
18188;SDS011;9219;50.396;8.546;2023-12-14T17:59:35;40.30;;;10.63;;
18188;SDS011;9219;50.396;8.546;2023-12-14T18:02:07;59.00;;;13.07;;
18188;SDS011;9219;50.396;8.546;2023-12-14T18:04:37;35.13;;;10.10;;
18188;SDS011;9219;50.396;8.546;2023-12-14T18:07:06;111.57;;;17.13;;
18188;SDS011;9219;50.396;8.546;2023-12-14T18:09:35;209.43;;;28.87;;
18188;SDS011;9219;50.396;8.546;2023-12-14T18:12:03;240.00;;;29.77;;
18188;SDS011;9219;50.396;8.546;2023-12-14T18:19:37;32.70;;;9.63;;
18188;SDS011;9219;50.396;8.546;2023-12-14T18:22:04;19.70;;;7.07;;
18188;SDS011;9219;50.396;8.546;2023-12-14T18:24:32;16.47;;;6.70;;
18188;SDS011;9219;50.396;8.546;2023-12-14T18:27:01;15.30;;;6.27;;
18188;SDS011;9219;50.396;8.546;2023-12-14T18:29:29;38.33;;;9.73;;
18188;SDS011;9219;50.396;8.546;2023-12-14T18:31:57;460.50;;;54.87;;
18188;SDS011;9219;50.396;8.546;2023-12-14T18:34:24;405.50;;;41.83;;
18188;SDS011;9219;50.396;8.546;2023-12-14T18:36:53;19.37;;;6.87;;
18188;SDS011;9219;50.396;8.546;2023-12-14T18:42:15;40.00;;;9.67;;
18188;SDS011;9219;50.396;8.546;2023-12-14T18:44:43;341.47;;;35.50;;
18188;SDS011;9219;50.396;8.546;2023-12-14T18:47:11;366.73;;;38.13;;
18188;SDS011;9219;50.396;8.546;2023-12-14T18:49:41;389.97;;;43.83;;
18188;SDS011;9219;50.396;8.546;2023-12-14T18:52:09;318.70;;;36.40;;
18188;SDS011;9219;50.396;8.546;2023-12-14T18:54:37;136.47;;;18.03;;
18188;SDS011;9219;50.396;8.546;2023-12-14T18:57:05;231.97;;;27.90;;
18188;SDS011;9219;50.396;8.546;2023-12-14T19:04:40;24.03;;;8.47;;
18188;SDS011;9219;50.396;8.546;2023-12-14T19:07:08;19.27;;;9.20;;
18188;SDS011;9219;50.396;8.546;2023-12-14T19:09:39;29.13;;;9.60;;
18188;SDS011;9219;50.396;8.546;2023-12-14T19:12:09;27.77;;;8.73;;
18188;SDS011;9219;50.396;8.546;2023-12-14T19:14:37;20.20;;;8.50;;
18188;SDS011;9219;50.396;8.546;2023-12-14T19:17:12;28.40;;;10.27;;
18188;SDS011;9219;50.396;8.546;2023-12-14T19:19:40;24.23;;;9.10;;
18188;SDS011;9219;50.396;8.546;2023-12-14T19:27:13;171.00;;;23.10;;
18188;SDS011;9219;50.396;8.546;2023-12-14T19:29:42;111.93;;;17.53;;
18188;SDS011;9219;50.396;8.546;2023-12-14T19:32:11;33.20;;;9.03;;
18188;SDS011;9219;50.396;8.546;2023-12-14T19:34:39;71.43;;;14.73;;
18188;SDS011;9219;50.396;8.546;2023-12-14T19:37:08;176.67;;;25.80;;
18188;SDS011;9219;50.396;8.546;2023-12-14T19:39:35;104.30;;;18.73;;
18188;SDS011;9219;50.396;8.546;2023-12-14T19:42:03;24.80;;;9.20;;
18188;SDS011;9219;50.396;8.546;2023-12-14T19:49:39;28.63;;;9.70;;
18188;SDS011;9219;50.396;8.546;2023-12-14T19:52:06;18.10;;;7.83;;
18188;SDS011;9219;50.396;8.546;2023-12-14T19:54:36;32.57;;;9.60;;
18188;SDS011;9219;50.396;8.546;2023-12-14T19:57:06;17.70;;;7.90;;
18188;SDS011;9219;50.396;8.546;2023-12-14T19:59:34;75.47;;;13.73;;
18188;SDS011;9219;50.396;8.546;2023-12-14T20:02:02;24.27;;;7.90;;